Time;durP1;ratioP1;P1;durP2;ratioP2;P2;SDS_P1;SDS_P2;PMS_P1;PMS_P2;Temp;Humidity;BMP_temperature;BMP_pressure;BME280_temperature;BME280_humidity;BME280_pressure;Samples;Min_cycle;Max_cycle;Signal;HPM_P1;HPM_P2
2023/06/30 00:00:52;;;;;;;0.77;0.70;;;21.60;99.90;;;;;;4398285;32;20078;-77
2023/06/30 00:03:19;;;;;;;1.73;0.90;;;21.60;99.90;;;;;;4398782;32;20089;-79
2023/06/30 00:05:46;;;;;;;0.52;0.50;;;21.60;99.90;;;;;;4397033;32;20090;-78
2023/06/30 00:08:12;;;;;;;0.40;0.40;;;21.60;99.90;;;;;;4398507;32;20082;-78
2023/06/30 00:10:38;;;;;;;0.40;0.40;;;21.60;99.90;;;;;;4397512;32;20077;-78
2023/06/30 00:13:03;;;;;;;1.45;0.98;;;21.60;99.90;;;;;;4399823;32;20141;-79
2023/06/30 00:15:29;;;;;;;19.10;1.30;;;21.70;99.90;;;;;;4398207;32;20093;-78
2023/06/30 00:17:56;;;;;;;0.55;0.55;;;21.70;99.90;;;;;;4398673;32;20089;-78
2023/06/30 00:20:23;;;;;;;0.65;0.65;;;21.70;99.90;;;;;;4396650;32;20109;-78
2023/06/30 00:22:49;;;;;;;9.05;0.95;;;21.70;99.90;;;;;;4398357;32;20158;-78
2023/06/30 00:25:15;;;;;;;2.83;0.57;;;21.70;99.90;;;;;;4397794;32;20074;-77
2023/06/30 00:27:40;;;;;;;1.48;0.93;;;21.70;99.90;;;;;;4400159;32;20069;-78
2023/06/30 00:30:07;;;;;;;0.95;0.80;;;21.80;99.90;;;;;;4398050;32;20094;-78
2023/06/30 00:32:32;;;;;;;0.30;0.30;;;21.60;99.90;;;;;;4395759;32;20078;-78
2023/06/30 00:34:58;;;;;;;0.60;0.57;;;21.60;99.90;;;;;;4396606;32;20201;-77
2023/06/30 00:37:24;;;;;;;0.50;0.50;;;21.50;99.90;;;;;;4396462;32;20077;-77
2023/06/30 00:39:50;;;;;;;0.55;0.55;;;21.50;99.90;;;;;;4396053;32;20522;-77
2023/06/30 00:42:16;;;;;;;0.40;0.40;;;21.40;99.90;;;;;;4398106;32;20082;-78
2023/06/30 00:44:41;;;;;;;7.60;1.05;;;21.30;99.90;;;;;;4397419;32;20136;-78
2023/06/30 00:47:07;;;;;;;0.82;0.80;;;21.30;99.90;;;;;;4397751;32;20570;-79
2023/06/30 00:49:33;;;;;;;1.55;0.82;;;21.20;99.90;;;;;;4396821;32;20093;-78
2023/06/30 00:51:59;;;;;;;0.70;0.65;;;21.20;99.90;;;;;;4396125;32;20103;-78
2023/06/30 00:54:25;;;;;;;0.62;0.47;;;21.00;99.90;;;;;;4394274;32;20553;-80
2023/06/30 00:56:51;;;;;;;0.68;0.57;;;20.90;99.90;;;;;;4392937;32;20077;-78
2023/06/30 00:59:16;;;;;;;1.65;0.77;;;20.80;99.90;;;;;;4393475;32;20411;-78
2023/06/30 01:01:48;;;;;;;0.85;0.80;;;20.60;99.90;;;;;;4391791;32;20758;-78
2023/06/30 01:04:26;;;;;;;0.75;0.70;;;20.50;99.90;;;;;;4393442;32;20128;-78
2023/06/30 01:07:02;;;;;;;1.02;0.80;;;20.40;99.90;;;;;;4379412;32;20102;-77
2023/06/30 01:09:31;;;;;;;0.65;0.60;;;20.30;99.90;;;;;;4393091;32;20157;-79
2023/06/30 01:11:57;;;;;;;1.43;1.33;;;20.20;99.90;;;;;;4393310;32;20482;-79
2023/06/30 01:14:24;;;;;;;0.55;0.55;;;20.10;99.90;;;;;;4392587;32;20066;-77
2023/06/30 01:16:50;;;;;;;0.60;0.60;;;20.10;99.90;;;;;;4392878;32;20091;-77
2023/06/30 01:19:30;;;;;;;6.35;0.60;;;20.10;99.90;;;;;;4394001;32;20414;-80
2023/06/30 01:22:02;;;;;;;0.77;0.68;;;20.00;99.90;;;;;;4394457;32;20124;-79
2023/06/30 01:24:34;;;;;;;7.62;1.45;;;20.00;99.90;;;;;;4394551;32;20473;-78
2023/06/30 01:27:00;;;;;;;6.70;1.15;;;19.90;99.90;;;;;;4392334;32;20066;-78
2023/06/30 01:29:26;;;;;;;0.70;0.70;;;20.00;99.90;;;;;;4392317;32;20132;-78
2023/06/30 01:31:52;;;;;;;0.82;0.60;;;20.00;99.90;;;;;;4394277;32;20546;-78
2023/06/30 01:34:17;;;;;;;2.00;1.27;;;20.00;99.90;;;;;;4394149;32;20138;-77
2023/06/30 01:36:43;;;;;;;2.92;0.93;;;20.00;99.90;;;;;;4394325;32;20440;-78
2023/06/30 01:39:08;;;;;;;0.68;0.68;;;19.80;99.90;;;;;;4392344;32;20077;-78
2023/06/30 01:41:34;;;;;;;1.08;0.90;;;19.80;99.90;;;;;;4393989;32;20133;-78
2023/06/30 01:44:01;;;;;;;3.00;1.55;;;19.90;99.90;;;;;;4393186;32;20144;-77
2023/06/30 01:46:27;;;;;;;1.10;1.05;;;19.90;99.90;;;;;;4390763;32;20075;-77
2023/06/30 01:48:54;;;;;;;0.60;0.60;;;19.80;99.90;;;;;;4395158;32;20090;-78
2023/06/30 01:51:20;;;;;;;2.55;0.93;;;19.90;99.90;;;;;;4393020;32;20081;-77
2023/06/30 01:53:45;;;;;;;0.50;0.50;;;19.90;99.90;;;;;;4392698;32;20086;-78
2023/06/30 01:56:11;;;;;;;2.05;0.88;;;19.90;99.90;;;;;;4393784;32;20074;-77
2023/06/30 01:58:36;;;;;;;0.60;0.60;;;19.80;99.90;;;;;;4394503;32;20657;-77
2023/06/30 02:01:02;;;;;;;0.65;0.65;;;19.80;99.90;;;;;;4396163;32;20078;-77
2023/06/30 02:03:27;;;;;;;5.07;1.08;;;19.80;99.90;;;;;;4394485;32;20428;-77
2023/06/30 02:05:54;;;;;;;1.67;1.10;;;19.80;99.90;;;;;;4395719;32;20137;-77
2023/06/30 02:08:19;;;;;;;0.68;0.68;;;19.80;99.90;;;;;;4394344;32;20193;-78
2023/06/30 02:10:45;;;;;;;4.32;1.23;;;19.80;99.90;;;;;;4396360;32;20094;-79
2023/06/30 02:13:10;;;;;;;1.10;0.82;;;19.80;99.90;;;;;;4397506;32;20910;-79
2023/06/30 02:15:36;;;;;;;0.50;0.50;;;19.70;99.90;;;;;;4394389;32;20066;-79
2023/06/30 02:18:03;;;;;;;0.68;0.68;;;19.60;99.90;;;;;;4396332;32;20458;-80
2023/06/30 02:20:28;;;;;;;0.62;0.62;;;19.60;99.90;;;;;;4396432;32;20086;-78
2023/06/30 02:22:54;;;;;;;1.08;0.80;;;19.50;99.90;;;;;;4395456;32;20462;-79
2023/06/30 02:25:20;;;;;;;3.78;1.73;;;19.40;99.90;;;;;;4396827;32;20078;-79
2023/06/30 02:27:45;;;;;;;0.60;0.50;;;19.50;99.90;;;;;;4393103;32;20085;-78
2023/06/30 02:30:12;;;;;;;1.62;0.68;;;19.50;99.90;;;;;;4393828;32;20129;-79
2023/06/30 02:32:38;;;;;;;2.03;1.15;;;19.40;99.90;;;;;;4394698;32;20074;-79
2023/06/30 02:35:05;;;;;;;10.02;1.25;;;19.50;99.90;;;;;;4396250;32;20113;-77
2023/06/30 02:37:31;;;;;;;2.78;0.82;;;19.50;99.90;;;;;;4394968;32;20522;-77
2023/06/30 02:39:56;;;;;;;0.70;0.70;;;19.50;99.90;;;;;;4396181;32;20062;-77
2023/06/30 02:42:22;;;;;;;0.65;0.65;;;19.50;99.90;;;;;;4397019;32;20585;-77
2023/06/30 02:44:47;;;;;;;0.60;0.60;;;19.40;99.90;;;;;;4395581;32;20066;-77
2023/06/30 02:47:13;;;;;;;1.00;0.80;;;19.30;99.90;;;;;;4396086;32;20419;-77
2023/06/30 02:49:38;;;;;;;0.50;0.50;;;19.30;99.90;;;;;;4395121;32;21151;-76
2023/06/30 02:52:04;;;;;;;2.05;0.75;;;19.30;99.90;;;;;;4394730;32;20481;-77
2023/06/30 02:54:29;;;;;;;2.85;0.73;;;19.40;99.90;;;;;;4394658;32;20062;-78
2023/06/30 02:56:55;;;;;;;0.70;0.70;;;19.30;99.90;;;;;;4394832;32;20089;-77
2023/06/30 02:59:20;;;;;;;0.50;0.50;;;19.40;99.90;;;;;;4395714;32;20118;-78
2023/06/30 03:01:46;;;;;;;3.03;0.62;;;19.40;99.90;;;;;;4394990;32;20098;-77
2023/06/30 03:04:11;;;;;;;6.00;0.90;;;19.40;99.90;;;;;;4393354;32;20154;-77
2023/06/30 03:06:37;;;;;;;3.40;1.65;;;19.40;99.90;;;;;;4393661;32;20089;-77
2023/06/30 03:09:03;;;;;;;0.50;0.50;;;19.40;99.90;;;;;;4395690;32;20083;-76
2023/06/30 03:11:28;;;;;;;2.92;1.20;;;19.30;99.90;;;;;;4396236;32;20119;-77
2023/06/30 03:13:54;;;;;;;1.27;0.95;;;19.30;99.90;;;;;;4396295;32;20085;-77
2023/06/30 03:16:19;;;;;;;0.57;0.57;;;19.30;99.90;;;;;;4394659;32;20065;-76
2023/06/30 03:18:44;;;;;;;8.20;1.20;;;19.40;99.90;;;;;;4396604;32;20070;-78
2023/06/30 03:21:10;;;;;;;1.67;0.68;;;19.40;99.90;;;;;;4394763;32;20817;-77
2023/06/30 03:23:36;;;;;;;3.50;1.17;;;19.40;99.90;;;;;;4394841;32;20065;-79
2023/06/30 03:26:02;;;;;;;2.62;1.10;;;19.50;99.90;;;;;;4395113;32;20565;-79
2023/06/30 03:28:28;;;;;;;2.05;1.27;;;19.40;99.90;;;;;;4395792;32;20290;-79
2023/06/30 03:30:53;;;;;;;0.82;0.60;;;19.40;99.90;;;;;;4394350;32;20094;-78
2023/06/30 03:33:19;;;;;;;0.70;0.70;;;19.40;99.90;;;;;;4394259;32;20086;-79
2023/06/30 03:35:46;;;;;;;0.82;0.82;;;19.40;99.90;;;;;;4394290;32;20073;-78
2023/06/30 03:38:12;;;;;;;4.07;1.17;;;19.40;99.90;;;;;;4395809;32;20073;-78
2023/06/30 03:40:37;;;;;;;3.15;1.00;;;19.30;99.90;;;;;;4395752;32;20086;-79
2023/06/30 03:43:03;;;;;;;1.27;0.93;;;19.30;99.90;;;;;;4378957;32;20102;-79
2023/06/30 03:45:28;;;;;;;0.95;0.88;;;19.30;99.90;;;;;;4394346;32;20073;-78
2023/06/30 03:47:54;;;;;;;2.75;1.08;;;19.40;99.90;;;;;;4394810;32;20087;-79
2023/06/30 03:50:20;;;;;;;0.52;0.52;;;19.40;99.90;;;;;;4396492;32;20061;-79
2023/06/30 03:52:45;;;;;;;0.77;0.77;;;19.30;99.90;;;;;;4393627;32;20617;-78
2023/06/30 03:55:11;;;;;;;3.67;0.80;;;19.30;99.90;;;;;;4396049;32;20081;-78
2023/06/30 03:57:36;;;;;;;7.82;0.80;;;19.30;99.90;;;;;;4394219;32;20113;-77
2023/06/30 04:00:02;;;;;;;0.85;0.70;;;19.30;99.90;;;;;;4394966;32;20106;-78
2023/06/30 04:02:29;;;;;;;0.62;0.62;;;19.40;99.90;;;;;;4394876;32;20071;-77
2023/06/30 04:04:54;;;;;;;4.80;1.25;;;19.40;99.90;;;;;;4395754;32;20514;-77
2023/06/30 04:07:19;;;;;;;2.25;1.45;;;19.40;99.90;;;;;;4395730;32;20090;-78
2023/06/30 04:09:45;;;;;;;0.95;0.70;;;19.30;99.90;;;;;;4392257;32;20482;-77
2023/06/30 04:12:10;;;;;;;2.45;1.12;;;19.40;99.90;;;;;;4395607;32;20146;-77
2023/06/30 04:14:36;;;;;;;0.60;0.60;;;19.40;99.90;;;;;;4394080;32;20562;-76
2023/06/30 04:17:02;;;;;;;2.35;1.15;;;19.50;99.90;;;;;;4394841;32;20431;-77
2023/06/30 04:19:27;;;;;;;0.68;0.68;;;19.50;99.90;;;;;;4396758;32;20143;-78
2023/06/30 04:21:53;;;;;;;1.10;0.60;;;19.50;99.90;;;;;;4391729;32;20144;-79
2023/06/30 04:24:19;;;;;;;2.62;0.80;;;19.60;99.90;;;;;;4395094;32;20114;-78
2023/06/30 04:26:45;;;;;;;1.45;0.60;;;19.60;99.90;;;;;;4397640;32;20065;-78
2023/06/30 04:29:10;;;;;;;5.90;1.85;;;19.70;99.90;;;;;;4394718;32;20077;-78
2023/06/30 04:31:36;;;;;;;1.50;1.00;;;19.80;99.90;;;;;;4394779;32;20117;-78
2023/06/30 04:34:01;;;;;;;2.17;1.70;;;19.70;99.90;;;;;;4397250;32;20101;-78
2023/06/30 04:36:29;;;;;;;0.98;0.95;;;19.70;99.90;;;;;;4396812;32;20202;-78
2023/06/30 04:38:55;;;;;;;2.00;0.85;;;19.60;99.90;;;;;;4396502;32;20478;-77
2023/06/30 04:41:22;;;;;;;2.30;1.42;;;19.60;99.90;;;;;;4396266;32;20086;-78
2023/06/30 04:43:47;;;;;;;1.27;1.17;;;19.70;99.90;;;;;;4392655;32;20102;-79
2023/06/30 04:46:14;;;;;;;4.28;1.48;;;19.80;99.90;;;;;;4394231;32;20129;-78
2023/06/30 04:48:40;;;;;;;1.95;0.80;;;19.80;99.90;;;;;;4391500;32;20070;-78
2023/06/30 04:51:05;;;;;;;0.65;0.40;;;19.70;99.90;;;;;;4383017;32;20078;-79
2023/06/30 04:53:31;;;;;;;1.33;0.88;;;19.70;99.90;;;;;;4392242;32;20098;-76
2023/06/30 04:55:57;;;;;;;3.60;1.48;;;19.80;99.90;;;;;;4391349;32;20104;-78
2023/06/30 04:58:24;;;;;;;4.40;1.12;;;19.80;99.90;;;;;;4390869;32;20430;-77
2023/06/30 05:00:50;;;;;;;0.57;0.57;;;19.90;99.90;;;;;;4392220;32;20075;-79
2023/06/30 05:03:16;;;;;;;0.65;0.65;;;20.00;99.90;;;;;;4389120;32;20089;-79
2023/06/30 05:05:42;;;;;;;0.82;0.82;;;20.00;99.90;;;;;;4391013;32;20458;-79
2023/06/30 05:08:07;;;;;;;0.98;0.88;;;20.00;99.90;;;;;;4393129;32;20090;-79
2023/06/30 05:10:35;;;;;;;3.25;0.73;;;20.00;99.90;;;;;;4392210;32;20126;-80
2023/06/30 05:13:01;;;;;;;3.22;0.88;;;20.00;99.90;;;;;;4392161;32;20065;-79
2023/06/30 05:15:26;;;;;;;1.35;0.77;;;20.10;99.90;;;;;;4391412;32;20121;-79
2023/06/30 05:17:53;;;;;;;3.67;1.40;;;20.10;99.90;;;;;;4383936;32;20085;-78
2023/06/30 05:20:19;;;;;;;3.58;1.27;;;20.10;99.90;;;;;;4390634;32;20079;-78
2023/06/30 05:22:46;;;;;;;1.50;0.95;;;20.00;99.90;;;;;;4393953;32;20447;-78
2023/06/30 05:25:14;;;;;;;4.72;1.05;;;20.00;99.90;;;;;;4390156;32;20534;-79
2023/06/30 05:27:42;;;;;;;3.40;1.08;;;20.10;99.90;;;;;;4368827;32;20118;-79
2023/06/30 05:30:08;;;;;;;0.82;0.57;;;20.10;99.90;;;;;;4387018;32;20249;-77
2023/06/30 05:32:33;;;;;;;0.70;0.70;;;20.20;99.90;;;;;;4378669;32;20793;-78
2023/06/30 05:34:59;;;;;;;2.62;1.27;;;20.30;99.90;;;;;;4391696;32;20486;-79
2023/06/30 05:37:26;;;;;;;3.53;1.62;;;20.30;99.90;;;;;;4376778;32;20086;-79
2023/06/30 05:39:53;;;;;;;1.25;0.88;;;20.40;99.90;;;;;;4392203;32;20097;-79
2023/06/30 05:42:20;;;;;;;1.17;1.02;;;20.50;99.90;;;;;;4396128;32;20085;-79
2023/06/30 05:44:46;;;;;;;1.92;0.88;;;20.30;99.90;;;;;;4389811;32;20089;-79
2023/06/30 05:47:16;;;;;;;1.77;0.90;;;20.40;99.90;;;;;;4388148;32;20198;-79
2023/06/30 05:49:41;;;;;;;0.43;0.43;;;20.50;99.90;;;;;;4393376;32;20082;-78
2023/06/30 05:52:07;;;;;;;3.20;1.35;;;20.60;99.90;;;;;;4383038;32;20235;-77
2023/06/30 05:54:33;;;;;;;0.52;0.50;;;20.80;99.90;;;;;;4390341;32;20160;-78
2023/06/30 05:56:59;;;;;;;1.75;1.00;;;20.90;99.90;;;;;;4382377;32;20159;-77
2023/06/30 05:59:28;;;;;;;1.17;0.80;;;21.00;99.90;;;;;;4385924;32;20207;-78
2023/06/30 06:01:54;;;;;;;0.60;0.60;;;21.00;99.90;;;;;;4376217;32;20098;-77
2023/06/30 06:04:21;;;;;;;0.95;0.93;;;21.00;99.90;;;;;;4371760;32;20180;-77
2023/06/30 06:06:46;;;;;;;2.62;1.20;;;20.80;99.90;;;;;;4381717;32;20141;-78
2023/06/30 06:09:13;;;;;;;3.28;1.05;;;20.80;99.90;;;;;;4382938;32;20098;-77
2023/06/30 06:11:39;;;;;;;2.15;0.80;;;20.90;99.90;;;;;;4377624;32;20098;-79
2023/06/30 06:14:06;;;;;;;0.60;0.60;;;21.00;99.90;;;;;;4383844;32;20085;-77
2023/06/30 06:16:32;;;;;;;0.98;0.90;;;21.00;99.90;;;;;;4383965;32;20187;-78
2023/06/30 06:18:58;;;;;;;1.62;0.85;;;21.00;99.90;;;;;;4380161;32;20854;-78
2023/06/30 06:21:27;;;;;;;3.92;1.27;;;21.00;99.90;;;;;;4379044;32;20077;-78
2023/06/30 06:23:54;;;;;;;2.05;0.90;;;21.00;99.90;;;;;;4373904;32;20175;-77
2023/06/30 06:26:21;;;;;;;1.73;0.70;;;21.10;99.90;;;;;;4375278;32;20238;-78
2023/06/30 06:28:47;;;;;;;0.50;0.50;;;21.20;99.90;;;;;;4380442;32;20089;-78
2023/06/30 06:31:13;;;;;;;0.50;0.50;;;21.20;99.90;;;;;;4379947;32;20099;-76
2023/06/30 06:33:39;;;;;;;2.03;1.10;;;21.20;99.90;;;;;;4382049;32;20139;-78
2023/06/30 06:36:05;;;;;;;1.75;0.95;;;21.30;99.90;;;;;;4382713;32;20089;-77
2023/06/30 06:38:31;;;;;;;0.57;0.43;;;21.20;99.90;;;;;;4387330;32;20098;-77
2023/06/30 06:40:57;;;;;;;0.90;0.40;;;21.20;99.90;;;;;;4386975;32;20124;-77
2023/06/30 06:43:26;;;;;;;0.90;0.55;;;21.20;99.90;;;;;;4385998;32;20121;-77
2023/06/30 06:45:51;;;;;;;0.80;0.70;;;21.30;99.90;;;;;;4385127;32;20581;-78
2023/06/30 06:48:23;;;;;;;0.47;0.47;;;21.40;99.90;;;;;;4383718;32;20082;-78
2023/06/30 06:50:57;;;;;;;0.52;0.52;;;21.40;99.90;;;;;;4365904;32;20094;-78
2023/06/30 06:53:27;;;;;;;2.78;1.30;;;21.40;99.90;;;;;;4381257;32;20098;-79
2023/06/30 06:55:55;;;;;;;2.28;0.80;;;21.50;99.90;;;;;;4382445;32;20085;-78
2023/06/30 06:58:21;;;;;;;1.48;1.05;;;21.40;99.90;;;;;;4384854;32;20078;-78
2023/06/30 07:00:50;;;;;;;1.62;1.10;;;21.40;99.90;;;;;;4386651;32;20075;-78
2023/06/30 07:03:16;;;;;;;5.05;1.17;;;21.40;99.90;;;;;;4385092;32;20093;-79
2023/06/30 07:05:44;;;;;;;0.60;0.60;;;21.40;99.90;;;;;;4382658;32;20829;-79
2023/06/30 07:08:10;;;;;;;1.05;0.62;;;21.30;99.90;;;;;;4379313;32;20641;-79
2023/06/30 07:10:36;;;;;;;2.30;1.23;;;21.30;99.90;;;;;;4380806;32;20141;-79
2023/06/30 07:13:02;;;;;;;0.90;0.47;;;21.30;99.90;;;;;;4376601;32;20827;-78
2023/06/30 07:15:28;;;;;;;4.25;0.60;;;21.30;99.90;;;;;;4378475;32;20089;-79
2023/06/30 07:17:54;;;;;;;1.25;1.08;;;21.20;99.90;;;;;;4377580;32;20087;-79
2023/06/30 07:20:19;;;;;;;1.05;0.73;;;21.20;99.90;;;;;;4379043;32;20078;-79
2023/06/30 07:22:46;;;;;;;0.73;0.60;;;21.10;99.90;;;;;;4379504;32;20110;-79
2023/06/30 07:25:11;;;;;;;1.55;0.68;;;21.00;99.90;;;;;;4378550;32;20537;-78
2023/06/30 07:27:38;;;;;;;1.87;0.60;;;21.00;99.90;;;;;;4373616;32;20101;-79
2023/06/30 07:30:06;;;;;;;3.10;0.60;;;21.00;99.90;;;;;;4370434;32;21158;-78
2023/06/30 07:32:33;;;;;;;0.40;0.40;;;21.10;99.90;;;;;;4374429;32;20640;-77
2023/06/30 07:35:02;;;;;;;3.45;0.82;;;21.10;99.90;;;;;;4379635;32;20572;-78
2023/06/30 07:37:28;;;;;;;0.40;0.40;;;21.00;99.90;;;;;;4374634;32;20091;-79
2023/06/30 07:39:54;;;;;;;1.70;0.98;;;21.10;99.90;;;;;;4382295;32;20094;-78
2023/06/30 07:42:22;;;;;;;0.93;0.93;;;21.10;99.90;;;;;;4381301;32;20188;-80
2023/06/30 07:44:49;;;;;;;4.68;1.30;;;21.10;99.90;;;;;;4380338;32;20081;-77
2023/06/30 07:47:18;;;;;;;0.80;0.80;;;21.10;99.90;;;;;;4380004;32;20094;-77
2023/06/30 07:49:44;;;;;;;0.85;0.73;;;21.20;99.90;;;;;;4379306;32;20604;-76
2023/06/30 07:52:10;;;;;;;2.10;1.05;;;21.20;99.90;;;;;;4380482;32;20086;-77
2023/06/30 07:54:36;;;;;;;4.10;1.15;;;21.30;99.90;;;;;;4374904;32;20128;-79
2023/06/30 07:57:02;;;;;;;0.40;0.40;;;21.30;99.90;;;;;;4377829;32;20089;-76
2023/06/30 07:59:28;;;;;;;1.75;0.93;;;21.40;99.90;;;;;;4382362;32;20526;-77
2023/06/30 08:01:54;;;;;;;0.70;0.70;;;21.40;99.90;;;;;;4372292;32;20996;-78
2023/06/30 08:04:21;;;;;;;0.98;0.57;;;21.40;99.90;;;;;;4382298;32;20106;-77
2023/06/30 08:06:48;;;;;;;1.27;1.15;;;21.40;99.90;;;;;;4377162;32;20175;-77
2023/06/30 08:09:14;;;;;;;0.60;0.60;;;21.50;99.90;;;;;;4380420;32;20185;-77
2023/06/30 08:11:39;;;;;;;4.28;1.00;;;21.50;99.90;;;;;;4382713;32;20070;-77
2023/06/30 08:14:06;;;;;;;3.12;1.35;;;21.50;99.90;;;;;;4382179;32;20373;-76
2023/06/30 08:16:32;;;;;;;0.50;0.50;;;21.60;99.90;;;;;;4382303;32;20098;-76
2023/06/30 08:18:58;;;;;;;0.55;0.55;;;21.60;99.90;;;;;;4380501;32;20094;-75
2023/06/30 08:21:24;;;;;;;0.70;0.70;;;21.60;99.90;;;;;;4375113;32;21776;-76
2023/06/30 08:23:49;;;;;;;0.73;0.73;;;21.60;99.90;;;;;;4380461;32;21133;-77
2023/06/30 08:26:15;;;;;;;3.58;1.48;;;21.80;99.90;;;;;;4368000;32;20669;-75
2023/06/30 08:28:40;;;;;;;1.77;0.90;;;21.90;99.90;;;;;;4374277;32;20090;-76
2023/06/30 08:31:06;;;;;;;0.85;0.82;;;21.90;99.90;;;;;;4380312;32;20069;-76
2023/06/30 08:33:32;;;;;;;0.93;0.85;;;21.90;99.90;;;;;;4379789;32;20516;-77
2023/06/30 08:36:01;;;;;;;0.57;0.57;;;21.90;99.90;;;;;;4380186;32;20628;-80
2023/06/30 08:38:28;;;;;;;3.05;0.62;;;21.90;99.90;;;;;;4382285;32;20490;-77
2023/06/30 08:40:55;;;;;;;1.65;1.15;;;21.90;99.90;;;;;;4382083;32;20085;-78
2023/06/30 08:43:23;;;;;;;0.93;0.50;;;21.90;99.90;;;;;;4377233;32;20157;-79
2023/06/30 08:45:53;;;;;;;2.70;0.73;;;22.00;99.90;;;;;;4379443;32;20107;-77
2023/06/30 08:48:20;;;;;;;1.25;0.80;;;22.00;99.90;;;;;;4379088;32;20534;-78
2023/06/30 08:50:46;;;;;;;1.08;0.50;;;22.10;99.90;;;;;;4383156;32;20098;-77
2023/06/30 08:53:11;;;;;;;0.75;0.73;;;22.10;99.90;;;;;;4385253;32;20106;-77
2023/06/30 08:55:37;;;;;;;2.33;0.88;;;22.20;99.90;;;;;;4384012;32;20609;-77
2023/06/30 08:58:04;;;;;;;1.20;0.57;;;22.20;99.90;;;;;;4364841;32;20106;-77
2023/06/30 09:00:29;;;;;;;1.55;0.70;;;22.30;99.90;;;;;;4383504;32;20179;-78
2023/06/30 09:02:56;;;;;;;3.08;0.60;;;22.50;99.90;;;;;;4378815;32;20090;-78
2023/06/30 09:05:25;;;;;;;6.78;0.88;;;22.30;99.90;;;;;;4376911;32;20132;-77
2023/06/30 09:07:55;;;;;;;2.15;0.52;;;22.30;99.90;;;;;;4378550;32;20443;-77
2023/06/30 09:10:23;;;;;;;1.80;0.85;;;22.30;99.90;;;;;;4388738;32;20094;-77
2023/06/30 09:12:54;;;;;;;0.47;0.47;;;22.30;99.90;;;;;;4378219;32;20086;-77
2023/06/30 09:15:22;;;;;;;0.55;0.50;;;22.20;99.90;;;;;;4386292;32;20193;-78
2023/06/30 09:17:54;;;;;;;1.23;1.12;;;22.30;99.90;;;;;;4389965;32;20444;-79
2023/06/30 09:20:21;;;;;;;9.52;0.75;;;22.20;99.90;;;;;;4392757;32;20141;-79
2023/06/30 09:22:47;;;;;;;0.47;0.47;;;22.10;99.90;;;;;;4389904;32;20074;-77
2023/06/30 09:25:34;;;;;;;1.80;0.95;;;21.90;99.90;;;;;;4388195;32;20153;-77
2023/06/30 09:27:59;;;;;;;0.60;0.60;;;21.90;99.90;;;;;;4379639;32;20067;-79
2023/06/30 09:30:44;;;;;;;1.50;1.00;;;21.80;99.90;;;;;;4389296;32;20078;-79
2023/06/30 09:33:14;;;;;;;6.22;1.35;;;21.80;99.90;;;;;;4392835;32;20113;-77
2023/06/30 09:35:41;;;;;;;1.60;1.17;;;21.80;99.90;;;;;;4395694;32;20105;-77
2023/06/30 09:38:09;;;;;;;2.28;0.82;;;22.00;99.90;;;;;;4396570;32;20887;-77
2023/06/30 09:40:35;;;;;;;1.65;0.88;;;22.10;99.90;;;;;;4395437;32;20105;-78
2023/06/30 09:43:00;;;;;;;0.73;0.73;;;22.10;99.90;;;;;;4394254;32;20070;-78
2023/06/30 09:45:26;;;;;;;2.60;1.30;;;22.10;99.90;;;;;;4392210;32;20114;-74
2023/06/30 09:47:53;;;;;;;2.00;0.93;;;22.20;99.90;;;;;;4389315;32;20515;-77
2023/06/30 09:50:23;;;;;;;2.30;1.00;;;22.20;99.90;;;;;;4391076;32;20513;-76
2023/06/30 09:52:49;;;;;;;1.83;1.10;;;22.10;99.90;;;;;;4389666;32;20101;-76
2023/06/30 09:55:14;;;;;;;2.42;1.02;;;22.10;99.90;;;;;;4389659;32;20106;-75
2023/06/30 09:57:43;;;;;;;3.03;1.15;;;22.10;99.90;;;;;;4392398;32;20149;-77
2023/06/30 10:00:11;;;;;;;0.82;0.70;;;22.10;99.90;;;;;;4391911;32;20121;-74
2023/06/30 10:02:37;;;;;;;1.27;0.73;;;22.30;99.90;;;;;;4386732;32;20081;-75
2023/06/30 10:05:03;;;;;;;0.93;0.85;;;22.40;99.90;;;;;;4388648;32;20110;-77
2023/06/30 10:07:28;;;;;;;1.15;1.05;;;22.40;99.90;;;;;;4393137;32;20852;-76
2023/06/30 10:09:54;;;;;;;6.37;1.92;;;22.30;99.90;;;;;;4397839;32;20105;-76
2023/06/30 10:12:21;;;;;;;1.20;0.80;;;22.30;99.90;;;;;;4387585;32;20106;-75
2023/06/30 10:14:49;;;;;;;4.45;1.27;;;22.10;99.90;;;;;;4390853;32;20659;-74
2023/06/30 10:17:14;;;;;;;1.33;1.02;;;22.10;99.90;;;;;;4392820;32;20079;-74
2023/06/30 10:19:41;;;;;;;3.53;0.88;;;22.10;99.90;;;;;;4388929;32;20192;-74
2023/06/30 10:22:07;;;;;;;1.65;1.02;;;22.00;99.90;;;;;;4389635;32;20153;-73
2023/06/30 10:24:37;;;;;;;3.15;1.65;;;21.90;99.90;;;;;;4387276;32;20071;-75
2023/06/30 10:27:06;;;;;;;4.78;1.48;;;21.80;99.90;;;;;;4387569;32;20083;-77
2023/06/30 10:29:32;;;;;;;3.00;1.40;;;21.70;99.90;;;;;;4383845;32;20090;-75
2023/06/30 10:31:58;;;;;;;2.30;1.27;;;21.50;99.90;;;;;;4385971;32;20110;-75
2023/06/30 10:34:26;;;;;;;5.30;2.08;;;21.20;99.90;;;;;;4387364;32;20120;-78
2023/06/30 10:36:52;;;;;;;2.60;1.40;;;21.00;99.90;;;;;;4384287;32;20091;-77
2023/06/30 10:39:19;;;;;;;3.72;1.55;;;20.90;99.90;;;;;;4384504;32;20101;-78
2023/06/30 10:41:46;;;;;;;0.52;0.52;;;21.00;99.90;;;;;;4384720;32;20434;-76
2023/06/30 10:44:13;;;;;;;1.02;1.00;;;20.90;99.90;;;;;;4384593;32;20156;-74
2023/06/30 10:47:00;;;;;;;13.35;1.15;;;20.90;99.90;;;;;;4384583;32;20517;-77
2023/06/30 10:49:36;;;;;;;2.28;1.77;;;20.90;99.90;;;;;;4381946;32;20081;-77
2023/06/30 10:52:07;;;;;;;2.50;0.62;;;20.80;99.90;;;;;;4390562;32;20514;-77
2023/06/30 10:54:44;;;;;;;0.82;0.82;;;20.70;99.90;;;;;;4386671;32;21870;-75
2023/06/30 10:57:13;;;;;;;0.73;0.73;;;20.70;99.90;;;;;;4387385;32;20062;-75
2023/06/30 10:59:41;;;;;;;1.77;1.10;;;20.70;99.90;;;;;;4388342;32;20090;-75
2023/06/30 11:02:22;;;;;;;1.62;0.82;;;20.70;99.90;;;;;;4387262;32;20103;-76
2023/06/30 11:04:52;;;;;;;1.48;1.10;;;20.60;99.90;;;;;;4373570;32;20117;-74
2023/06/30 11:07:18;;;;;;;5.30;1.27;;;20.50;99.90;;;;;;4386721;32;20078;-76
2023/06/30 11:09:49;;;;;;;1.55;1.12;;;20.40;99.90;;;;;;4387775;32;20185;-76
2023/06/30 11:12:16;;;;;;;3.45;1.77;;;20.40;99.90;;;;;;4374361;32;20078;-76
2023/06/30 11:15:00;;;;;;;0.62;0.62;;;20.30;99.90;;;;;;4388449;32;20526;-77
2023/06/30 11:17:27;;;;;;;6.18;1.17;;;20.30;99.90;;;;;;4386037;32;20466;-76
2023/06/30 11:20:10;;;;;;;9.70;1.20;;;20.30;99.90;;;;;;4375345;32;20118;-75
2023/06/30 11:22:36;;;;;;;5.20;1.23;;;20.30;99.90;;;;;;4390735;32;20098;-75
2023/06/30 11:25:04;;;;;;;5.05;1.05;;;20.20;99.90;;;;;;4391938;32;20098;-75
2023/06/30 11:27:31;;;;;;;3.40;1.27;;;20.20;99.90;;;;;;4386801;32;20995;-77
2023/06/30 11:29:59;;;;;;;2.37;1.17;;;20.20;99.90;;;;;;4388390;32;20172;-75
2023/06/30 11:32:26;;;;;;;0.82;0.80;;;20.20;99.90;;;;;;4386119;32;20541;-77
2023/06/30 11:34:52;;;;;;;4.35;0.95;;;20.20;99.90;;;;;;4387511;32;20110;-75
2023/06/30 11:37:18;;;;;;;2.30;1.10;;;20.20;99.90;;;;;;4390305;32;20086;-76
2023/06/30 11:39:52;;;;;;;1.25;0.80;;;20.10;99.90;;;;;;4389321;32;20143;-77
2023/06/30 11:42:19;;;;;;;3.45;1.05;;;20.10;99.90;;;;;;4372314;32;20123;-77
2023/06/30 11:44:45;;;;;;;0.88;0.60;;;20.20;99.90;;;;;;4384118;32;20070;-78
2023/06/30 11:47:44;;;;;;;12.18;1.52;;;20.10;99.90;;;;;;4431027;32;431687;-76
2023/06/30 11:50:11;;;;;;;1.77;0.88;;;20.20;99.90;;;;;;4449367;32;20076;-75
2023/06/30 11:52:39;;;;;;;2.28;1.40;;;20.20;99.90;;;;;;4445071;32;20095;-75
2023/06/30 11:55:06;;;;;;;3.08;0.98;;;20.30;99.90;;;;;;4448059;32;20076;-76
2023/06/30 11:57:34;;;;;;;2.22;1.08;;;20.30;99.90;;;;;;4442971;32;20534;-77
2023/06/30 12:00:10;;;;;;;15.85;0.68;;;20.50;99.90;;;;;;4443556;32;20108;-75
2023/06/30 12:02:36;;;;;;;2.33;1.12;;;20.60;99.90;;;;;;4448409;32;20609;-75
2023/06/30 12:05:04;;;;;;;1.92;1.12;;;20.50;99.90;;;;;;4444755;32;20065;-75
2023/06/30 12:07:31;;;;;;;4.65;1.12;;;20.50;99.90;;;;;;4446037;32;20156;-76
2023/06/30 12:10:00;;;;;;;0.77;0.65;;;20.50;99.90;;;;;;4446095;32;20089;-76
2023/06/30 12:12:27;;;;;;;5.72;1.77;;;20.40;99.90;;;;;;4450907;32;20085;-77
2023/06/30 12:14:53;;;;;;;1.70;1.10;;;20.40;99.90;;;;;;4450306;32;20168;-75
2023/06/30 12:17:19;;;;;;;2.00;1.25;;;20.40;99.90;;;;;;4448564;32;20076;-75
2023/06/30 12:19:45;;;;;;;0.47;0.47;;;20.20;99.90;;;;;;4449747;32;20097;-77
2023/06/30 12:22:12;;;;;;;0.70;0.70;;;20.20;99.90;;;;;;4450521;32;20084;-77
2023/06/30 12:24:42;;;;;;;0.43;0.40;;;20.20;99.90;;;;;;4450659;32;20088;-76
2023/06/30 12:27:08;;;;;;;0.50;0.50;;;20.20;99.90;;;;;;4446593;32;20091;-77
2023/06/30 12:29:35;;;;;;;0.68;0.68;;;20.20;99.90;;;;;;4447337;32;20061;-76
2023/06/30 12:32:16;;;;;;;1.75;0.52;;;20.10;99.90;;;;;;4447016;32;20090;-76
2023/06/30 12:34:42;;;;;;;0.55;0.55;;;20.00;99.90;;;;;;4442828;32;20514;-77
2023/06/30 12:37:07;;;;;;;0.40;0.40;;;19.90;99.90;;;;;;4440990;32;20080;-77
2023/06/30 12:39:33;;;;;;;0.47;0.47;;;19.90;99.90;;;;;;4439742;32;20195;-78
2023/06/30 12:41:58;;;;;;;0.20;0.20;;;19.90;99.90;;;;;;4442300;32;20452;-78
2023/06/30 12:44:24;;;;;;;3.00;0.45;;;19.70;99.90;;;;;;4442623;32;20069;-75